Terminal Aerodrome Forecast
Issued by NWS

Home | Current Version | Previous Version | Text Only | Print | Product List | Glossary On
Versions: 1 2 3 4 5 6 7 8 9 10 11 12 13 14 15 16 17 18 19 20 21 22 23 24 25 26 27 28 29 30 31 32 33 34 35
000
FTUS41 KBOX 272320
TAFBAF
TAF
KBAF 272320Z 2800/2824 18006KT P6SM OVC025
     FM280300 16006KT P6SM OVC012
     FM280600 16006KT 1SM BR OVC003
     FM280800 16005KT 2SM BR VCSH OVC005
     FM281100 18004KT 4SM BR OVC010
     FM281200 22004KT P6SM BKN025
     FM281400 27004KT P6SM SCT060
     FM282000 25008KT P6SM FEW250=

USA.gov is the U.S. government's official web portal to all federal, state and local government web resources and services.